Time;durP1;ratioP1;P1;durP2;ratioP2;P2;SDS_P1;SDS_P2;PMS_P1;PMS_P2;Temp;Humidity;BMP_temperature;BMP_pressure;BME280_temperature;BME280_humidity;BME280_pressure;Samples;Min_cycle;Max_cycle;Signal;HPM_P1;HPM_P2
2022/09/15 00:01:15;;;;;;;3.95;2.35;;;15.70;99.90;;;;;;4990671;28;20197;-92
2022/09/15 00:03:41;;;;;;;3.28;2.42;;;15.60;99.90;;;;;;4982798;28;20210;-93
2022/09/15 00:06:08;;;;;;;3.10;2.22;;;15.70;99.90;;;;;;4975333;28;20265;-94
2022/09/15 00:08:34;;;;;;;4.05;2.08;;;15.80;99.90;;;;;;4975404;28;20253;-93
2022/09/15 00:11:14;;;;;;;4.88;3.65;;;15.80;99.90;;;;;;4975345;28;20297;-93
2022/09/15 00:13:40;;;;;;;4.55;3.00;;;15.80;99.90;;;;;;4975768;28;20174;-93
2022/09/15 00:16:07;;;;;;;3.42;2.72;;;15.80;99.90;;;;;;4989025;28;20205;-92
2022/09/15 00:18:34;;;;;;;2.78;2.00;;;15.80;99.90;;;;;;4968842;28;20273;-93
2022/09/15 00:21:04;;;;;;;4.18;2.88;;;15.60;99.90;;;;;;4975023;28;20194;-93
2022/09/15 00:23:29;;;;;;;2.67;1.75;;;16.20;99.90;;;;;;4958196;28;20174;-93
2022/09/15 00:25:55;;;;;;;3.95;2.55;;;;;;;;;;4957763;28;20269;-93
2022/09/15 00:28:21;;;;;;;1.88;1.63;;;16.00;99.90;;;;;;4975085;28;20230;-93
2022/09/15 00:30:50;;;;;;;2.38;2.08;;;15.60;99.90;;;;;;4957996;28;20178;-93
2022/09/15 00:33:16;;;;;;;2.08;1.85;;;15.80;99.90;;;;;;4976391;28;20181;-93
2022/09/15 00:35:43;;;;;;;2.00;1.83;;;15.90;99.90;;;;;;4976998;28;20174;-92
2022/09/15 00:38:11;;;;;;;2.83;2.10;;;15.90;99.90;;;;;;4959098;28;20190;-93
2022/09/15 00:40:52;;;;;;;2.97;2.13;;;15.90;99.90;;;;;;4975166;28;20174;-93
2022/09/15 00:43:20;;;;;;;2.53;2.10;;;15.70;99.90;;;;;;4975127;28;20202;-94
2022/09/15 00:45:45;;;;;;;2.95;2.47;;;15.90;99.90;;;;;;4974861;28;20666;-87
2022/09/15 00:48:16;;;;;;;1.95;1.73;;;15.60;99.90;;;;;;4975005;28;20214;-93
2022/09/15 00:50:48;;;;;;;2.50;2.17;;;15.70;99.90;;;;;;4974872;28;20173;-93
2022/09/15 00:53:14;;;;;;;3.85;1.92;;;15.80;99.90;;;;;;4974755;28;20178;-94
2022/09/15 00:55:48;;;;;;;4.10;2.60;;;16.10;99.90;;;;;;4974816;28;20213;-93
2022/09/15 00:58:20;;;;;;;2.53;2.00;;;15.50;99.90;;;;;;4960374;28;20646;-93
2022/09/15 01:00:54;;;;;;;2.75;2.35;;;15.80;99.90;;;;;;4979317;28;20647;-93
2022/09/15 01:03:21;;;;;;;6.75;2.85;;;15.80;99.90;;;;;;4979047;28;20179;-94
2022/09/15 01:05:54;;;;;;;4.10;1.98;;;15.70;99.90;;;;;;4961191;28;20182;-93
2022/09/15 01:08:35;;;;;;;3.42;2.30;;;15.70;99.90;;;;;;4978837;28;20186;-94
2022/09/15 01:11:01;;;;;;;2.00;1.80;;;16.10;99.90;;;;;;4978142;28;20201;-94
2022/09/15 01:13:28;;;;;;;1.80;1.40;;;15.70;99.90;;;;;;4945847;28;20183;-94
2022/09/15 01:16:35;;;;;;;3.05;1.98;;;15.50;99.90;;;;;;4978458;28;20179;-93
2022/09/15 01:19:31;;;;;;;2.90;1.48;;;15.60;99.90;;;;;;4962592;28;20232;-93
2022/09/15 01:22:15;;;;;;;4.30;1.90;;;16.00;99.90;;;;;;4979099;28;20171;-93
2022/09/15 01:24:50;;;;;;;2.63;2.22;;;15.60;99.90;;;;;;4978971;28;20179;-93
2022/09/15 01:27:22;;;;;;;2.78;1.95;;;15.60;99.90;;;;;;4978284;28;20284;-94
2022/09/15 01:29:55;;;;;;;1.83;1.70;;;15.30;99.90;;;;;;4961218;28;20590;-94
2022/09/15 01:35:20;;;;;;;2.83;2.30;;;15.50;99.90;;;;;;4977456;28;20189;-93
2022/09/15 01:38:02;;;;;;;1.63;1.48;;;15.40;99.90;;;;;;4977316;28;20190;-92
2022/09/15 01:40:39;;;;;;;2.20;2.00;;;15.50;99.90;;;;;;4959408;28;20186;-92
2022/09/15 01:43:07;;;;;;;3.30;2.03;;;15.30;99.90;;;;;;4974196;28;20202;-93
2022/09/15 01:45:34;;;;;;;2.03;1.70;;;15.40;99.90;;;;;;4958876;28;20238;-94
2022/09/15 01:48:01;;;;;;;2.08;1.95;;;15.90;99.90;;;;;;4971739;28;20582;-93
2022/09/15 01:50:35;;;;;;;3.05;2.13;;;15.50;99.90;;;;;;4977395;28;20175;-94
2022/09/15 01:53:04;;;;;;;4.35;2.55;;;15.30;99.90;;;;;;4949819;28;20218;-93
2022/09/15 01:55:37;;;;;;;4.05;2.67;;;15.50;99.90;;;;;;4951086;28;20274;-93
2022/09/15 01:58:03;;;;;;;3.28;1.80;;;15.50;99.90;;;;;;4965039;28;20706;-93
2022/09/15 02:00:33;;;;;;;3.00;1.95;;;15.40;99.90;;;;;;4948897;28;20195;-94
2022/09/15 02:03:04;;;;;;;2.20;1.73;;;15.40;99.90;;;;;;4948997;28;20217;-93
2022/09/15 02:05:43;;;;;;;1.42;1.33;;;16.00;99.90;;;;;;4970277;28;20259;-94
2022/09/15 02:08:34;;;;;;;2.55;1.77;;;15.40;99.90;;;;;;4968348;28;20273;-93
2022/09/15 02:11:16;;;;;;;2.03;1.83;;;15.40;99.90;;;;;;4966056;28;20242;-94
2022/09/15 02:14:19;;;;;;;3.30;2.70;;;15.40;99.90;;;;;;4975787;28;20194;-94
2022/09/15 02:16:48;;;;;;;2.63;1.77;;;15.40;99.90;;;;;;4920367;29;20252;-95
2022/09/15 02:19:31;;;;;;;4.15;2.78;;;15.40;99.90;;;;;;4952481;29;20222;-94
2022/09/15 02:22:16;;;;;;;2.30;1.75;;;15.30;99.90;;;;;;4942760;29;20182;-94
2022/09/15 02:24:50;;;;;;;3.13;2.60;;;15.30;99.90;;;;;;4958451;29;20179;-95
2022/09/15 02:27:23;;;;;;;2.28;2.08;;;15.30;99.90;;;;;;4942241;29;20231;-93
2022/09/15 02:29:51;;;;;;;1.50;1.40;;;15.60;99.90;;;;;;4963823;29;20175;-93
2022/09/15 02:32:22;;;;;;;2.78;2.08;;;15.30;99.90;;;;;;4947258;29;20238;-94
2022/09/15 02:34:50;;;;;;;2.25;2.05;;;15.30;99.90;;;;;;4965308;29;20167;-93
2022/09/15 02:37:19;;;;;;;3.00;1.80;;;15.30;99.90;;;;;;4964586;29;20194;-94
2022/09/15 02:39:52;;;;;;;3.78;2.03;;;15.30;99.90;;;;;;4950734;29;20214;-94
2022/09/15 02:42:29;;;;;;;4.10;1.95;;;15.40;99.90;;;;;;4952027;29;20203;-95
2022/09/15 02:44:56;;;;;;;3.05;2.50;;;15.30;99.90;;;;;;4980622;28;20174;-94
2022/09/15 02:47:22;;;;;;;2.75;1.75;;;15.30;99.90;;;;;;4986557;28;20178;-94
2022/09/15 02:49:47;;;;;;;3.13;2.30;;;15.30;99.90;;;;;;4970291;28;20229;-94
2022/09/15 02:52:13;;;;;;;2.47;2.28;;;15.30;99.90;;;;;;4980185;28;20222;-93
2022/09/15 02:54:39;;;;;;;3.42;2.08;;;15.40;99.90;;;;;;4969072;28;20191;-94
2022/09/15 02:57:05;;;;;;;3.38;2.17;;;15.30;99.90;;;;;;4950990;28;20647;-87
2022/09/15 03:00:11;;;;;;;2.65;2.30;;;15.30;99.90;;;;;;4974577;28;20182;-93
2022/09/15 03:02:18;;;;;;;2.90;2.28;;;15.30;99.90;;;;;;4984955;28;20194;-93
2022/09/15 03:04:45;;;;;;;1.85;1.65;;;15.30;99.90;;;;;;4969769;28;20175;-94
2022/09/15 03:07:11;;;;;;;3.08;2.72;;;15.40;99.90;;;;;;4982877;28;20183;-94
2022/09/15 03:09:36;;;;;;;4.72;3.20;;;15.40;99.90;;;;;;4964167;28;20290;-92
2022/09/15 03:12:02;;;;;;;3.03;2.42;;;15.40;99.90;;;;;;4983893;28;20202;-91
2022/09/15 03:14:31;;;;;;;3.25;1.92;;;15.30;99.90;;;;;;4962150;28;20236;-93
2022/09/15 03:16:57;;;;;;;2.53;2.33;;;15.30;99.90;;;;;;4959944;28;20182;-93
2022/09/15 03:19:23;;;;;;;2.63;1.85;;;15.40;99.90;;;;;;4981180;28;20202;-93
2022/09/15 03:21:49;;;;;;;2.53;2.33;;;15.30;99.90;;;;;;4965754;28;20199;-95
2022/09/15 03:24:15;;;;;;;2.30;2.10;;;;;;;;;;4965108;28;20216;-93
2022/09/15 03:26:40;;;;;;;2.63;2.30;;;15.30;99.90;;;;;;4967435;28;20190;-94
2022/09/15 03:29:06;;;;;;;6.18;2.67;;;15.30;99.90;;;;;;4947514;28;20230;-94
2022/09/15 03:31:32;;;;;;;3.72;2.90;;;;;;;;;;4969230;28;20246;-93
2022/09/15 03:33:58;;;;;;;5.85;3.33;;;;;;;;;;4951775;28;20191;-94
2022/09/15 03:36:24;;;;;;;2.80;2.22;;;;;;;;;;4954239;28;20630;-93
2022/09/15 03:38:50;;;;;;;7.85;2.72;;;;;;;;;;4973451;28;20194;-94
2022/09/15 03:41:16;;;;;;;3.80;3.15;;;;;;;;;;4948482;28;20278;-91
2022/09/15 03:43:41;;;;;;;3.83;2.70;;;15.60;99.90;;;;;;4974906;28;20198;-94
2022/09/15 03:46:10;;;;;;;3.38;2.42;;;15.30;99.90;;;;;;4960087;28;20194;-93
2022/09/15 03:48:36;;;;;;;2.58;1.88;;;15.30;99.90;;;;;;4976530;28;20277;-95
2022/09/15 03:51:06;;;;;;;2.67;2.38;;;15.30;99.90;;;;;;4976381;28;20261;-96
2022/09/15 03:53:34;;;;;;;2.60;2.22;;;15.10;99.90;;;;;;4958453;28;20248;-93
2022/09/15 03:56:08;;;;;;;3.63;2.88;;;15.20;99.90;;;;;;4958537;28;20592;-95
2022/09/15 03:58:34;;;;;;;2.65;2.22;;;15.10;99.90;;;;;;4971242;28;20182;-94
2022/09/15 04:01:00;;;;;;;3.58;2.53;;;15.30;99.90;;;;;;4976135;28;20245;-94
2022/09/15 04:03:25;;;;;;;5.75;2.90;;;15.30;99.90;;;;;;4953834;29;20292;-93
2022/09/15 04:05:51;;;;;;;2.58;2.20;;;15.40;99.90;;;;;;4949498;28;20286;-95
2022/09/15 04:08:17;;;;;;;3.72;2.22;;;15.20;99.90;;;;;;4963385;28;20174;-93
2022/09/15 04:10:43;;;;;;;4.57;2.65;;;;;;;;;;4955807;28;20187;-95
2022/09/15 04:13:09;;;;;;;5.15;3.53;;;15.40;99.90;;;;;;4960701;28;20253;-94
2022/09/15 04:15:34;;;;;;;4.35;3.05;;;15.20;99.90;;;;;;4937600;29;20191;-92
2022/09/15 04:18:00;;;;;;;2.83;2.35;;;;;;;;;;4968917;28;20190;-93
2022/09/15 04:20:26;;;;;;;5.25;3.47;;;14.60;99.90;;;;;;4973463;28;20189;-93
2022/09/15 04:22:52;;;;;;;5.60;2.40;;;15.00;99.90;;;;;;4957876;28;20202;-92
2022/09/15 04:25:17;;;;;;;2.10;1.58;;;15.30;99.90;;;;;;4956637;28;20290;-89
2022/09/15 04:27:43;;;;;;;2.72;2.53;;;;;;;;;;4956270;28;20308;-92
2022/09/15 04:30:09;;;;;;;7.72;3.47;;;14.70;99.90;;;;;;4973417;28;20213;-90
2022/09/15 04:32:35;;;;;;;3.90;3.08;;;15.50;99.90;;;;;;4955208;28;20690;-90
2022/09/15 04:35:02;;;;;;;4.78;3.10;;;14.80;99.90;;;;;;4971248;28;20193;-91
2022/09/15 04:37:27;;;;;;;5.68;3.63;;;15.50;99.90;;;;;;4968647;28;20655;-91
2022/09/15 04:39:53;;;;;;;5.80;3.35;;;15.20;99.90;;;;;;4951878;28;20245;-90
2022/09/15 04:42:20;;;;;;;5.50;3.25;;;15.20;99.90;;;;;;4949742;28;20286;-89
2022/09/15 04:44:47;;;;;;;3.80;2.88;;;;;;;;;;4970376;28;20289;-89
2022/09/15 04:47:13;;;;;;;5.88;3.30;;;15.20;99.90;;;;;;4949435;28;20723;-89
2022/09/15 04:49:39;;;;;;;4.40;3.22;;;14.90;99.90;;;;;;4950595;28;20206;-90
2022/09/15 04:52:05;;;;;;;2.95;2.67;;;;;;;;;;4966285;28;20221;-90
2022/09/15 04:54:32;;;;;;;3.05;2.58;;;15.40;99.90;;;;;;4964908;28;20195;-89
2022/09/15 04:56:58;;;;;;;3.58;3.10;;;15.30;99.90;;;;;;4966343;28;20183;-89
2022/09/15 04:59:23;;;;;;;3.25;2.80;;;15.10;99.90;;;;;;4943216;28;20628;-89
2022/09/15 05:01:53;;;;;;;3.13;2.47;;;15.00;99.90;;;;;;4932143;28;20198;-89
2022/09/15 05:04:19;;;;;;;3.72;2.88;;;15.50;99.90;;;;;;4955163;28;20186;-88
2022/09/15 05:06:45;;;;;;;3.75;2.55;;;15.40;99.90;;;;;;4956232;28;20174;-89
2022/09/15 05:09:13;;;;;;;3.65;2.70;;;14.90;99.90;;;;;;4949158;28;20198;-87
2022/09/15 05:11:39;;;;;;;7.75;3.42;;;15.50;99.90;;;;;;4934305;28;20215;-86
2022/09/15 05:14:05;;;;;;;3.85;3.03;;;15.30;99.90;;;;;;4963424;28;20205;-88
2022/09/15 05:16:31;;;;;;;3.58;2.78;;;14.80;99.90;;;;;;4967886;28;20179;-88
2022/09/15 05:19:01;;;;;;;6.15;3.13;;;15.20;99.90;;;;;;4944929;28;20252;-87
2022/09/15 05:21:28;;;;;;;5.18;2.92;;;15.10;99.90;;;;;;4965026;28;20175;-87
2022/09/15 05:23:53;;;;;;;4.15;2.72;;;15.20;99.90;;;;;;4964352;28;20648;-87
2022/09/15 05:26:22;;;;;;;5.50;3.45;;;15.20;99.90;;;;;;4971118;28;20186;-88
2022/09/15 05:28:48;;;;;;;4.47;2.88;;;15.20;99.90;;;;;;4944440;28;20221;-87
2022/09/15 05:31:17;;;;;;;3.03;2.78;;;15.20;99.90;;;;;;4961778;28;20210;-88
2022/09/15 05:33:44;;;;;;;3.88;3.17;;;15.20;99.90;;;;;;4965959;28;20195;-86
2022/09/15 05:36:10;;;;;;;4.78;3.53;;;15.30;99.90;;;;;;4968274;28;20185;-86
2022/09/15 05:38:36;;;;;;;3.30;2.63;;;15.00;99.90;;;;;;4966664;28;20175;-87
2022/09/15 05:41:06;;;;;;;2.42;2.20;;;15.40;99.90;;;;;;4940467;28;20539;-87
2022/09/15 05:43:34;;;;;;;5.43;2.90;;;15.10;99.90;;;;;;4960941;28;20210;-88
2022/09/15 05:46:00;;;;;;;2.40;1.90;;;15.50;99.90;;;;;;4940920;29;20590;-88
2022/09/15 05:48:26;;;;;;;2.88;2.50;;;;;;;;;;4961242;28;20182;-88
2022/09/15 05:50:53;;;;;;;3.30;2.42;;;15.40;99.90;;;;;;4964307;28;20180;-88
2022/09/15 05:53:19;;;;;;;6.25;2.85;;;14.90;99.90;;;;;;4963734;28;20202;-88
2022/09/15 05:55:46;;;;;;;7.20;2.63;;;15.20;99.90;;;;;;4959832;28;20179;-88
2022/09/15 05:58:12;;;;;;;5.15;2.65;;;15.00;99.90;;;;;;4955392;28;20545;-90
2022/09/15 06:00:40;;;;;;;6.32;2.50;;;;;;;;;;4977048;28;20620;-89
2022/09/15 06:03:06;;;;;;;5.63;3.63;;;15.00;99.90;;;;;;4991238;28;20278;-88
2022/09/15 06:05:32;;;;;;;5.43;2.88;;;14.90;99.90;;;;;;4949189;28;20183;-89
2022/09/15 06:07:58;;;;;;;3.80;2.88;;;15.30;99.90;;;;;;4947213;28;20194;-89
2022/09/15 06:10:24;;;;;;;5.22;3.45;;;;;;;;;;4938568;28;20179;-88
2022/09/15 06:12:52;;;;;;;4.40;2.42;;;15.30;99.90;;;;;;4972169;28;20222;-87
2022/09/15 06:15:19;;;;;;;4.43;2.58;;;15.10;99.90;;;;;;4977854;28;20181;-89
2022/09/15 06:17:44;;;;;;;3.80;2.90;;;15.30;99.90;;;;;;4956343;28;20190;-86
2022/09/15 06:20:11;;;;;;;4.30;2.90;;;14.90;99.90;;;;;;4959558;28;20175;-87
2022/09/15 06:22:36;;;;;;;4.35;2.75;;;15.20;99.90;;;;;;4976781;28;20281;-87
2022/09/15 06:25:03;;;;;;;5.95;3.30;;;14.90;99.90;;;;;;4976638;28;20258;-87
2022/09/15 06:27:28;;;;;;;5.40;2.97;;;15.40;99.90;;;;;;4976238;28;20237;-88
2022/09/15 06:29:54;;;;;;;7.30;2.35;;;;;;;;;;4959446;28;20190;-87
2022/09/15 06:32:20;;;;;;;4.30;2.33;;;;;;;;;;4976014;28;20698;-89
2022/09/15 06:34:46;;;;;;;5.90;2.88;;;15.20;99.90;;;;;;4975813;28;20186;-88
2022/09/15 06:37:12;;;;;;;4.43;2.65;;;;;;;;;;4959299;28;20189;-88
2022/09/15 06:39:38;;;;;;;4.60;2.70;;;;;;;;;;4958966;28;20186;-88
2022/09/15 06:42:04;;;;;;;4.57;2.55;;;15.50;99.90;;;;;;4976130;28;20174;-88
2022/09/15 06:44:30;;;;;;;5.90;3.35;;;15.40;99.90;;;;;;4958885;28;20286;-87
2022/09/15 06:46:56;;;;;;;3.45;2.95;;;;;;;;;;4959465;28;20266;-88
2022/09/15 06:49:22;;;;;;;8.57;4.07;;;15.40;99.90;;;;;;4942833;28;20646;-88
2022/09/15 06:51:48;;;;;;;3.88;2.63;;;15.10;99.90;;;;;;4975876;28;20249;-88
2022/09/15 06:54:14;;;;;;;5.00;3.70;;;15.60;99.90;;;;;;4942646;28;20186;-88
2022/09/15 06:56:41;;;;;;;5.07;3.25;;;15.20;99.90;;;;;;4958383;28;20186;-87
2022/09/15 06:59:09;;;;;;;5.55;3.75;;;15.50;99.90;;;;;;4957828;28;20648;-89
2022/09/15 07:01:36;;;;;;;4.97;3.72;;;15.50;99.90;;;;;;4974812;28;20190;-89
2022/09/15 07:04:04;;;;;;;6.93;4.07;;;15.50;99.90;;;;;;4958120;28;20175;-88
2022/09/15 07:06:32;;;;;;;12.50;7.78;;;15.50;99.90;;;;;;4975594;28;20179;-89
2022/09/15 07:08:59;;;;;;;8.38;5.90;;;15.50;99.90;;;;;;4975499;28;20190;-89
2022/09/15 07:11:25;;;;;;;14.45;6.63;;;15.60;99.90;;;;;;4975704;28;20199;-89
2022/09/15 07:13:51;;;;;;;7.90;5.32;;;15.60;99.90;;;;;;4958380;28;20193;-88
2022/09/15 07:16:18;;;;;;;11.18;6.78;;;15.60;99.90;;;;;;4942854;28;20185;-87
2022/09/15 07:18:44;;;;;;;9.98;7.07;;;15.50;99.90;;;;;;4975788;28;20189;-88
2022/09/15 07:21:13;;;;;;;7.40;5.03;;;15.50;99.90;;;;;;4958304;28;20242;-89
2022/09/15 07:23:38;;;;;;;7.43;3.90;;;15.50;99.90;;;;;;4958301;28;20183;-89
2022/09/15 07:26:16;;;;;;;9.23;5.55;;;15.40;99.90;;;;;;4974860;28;20190;-88
2022/09/15 07:28:49;;;;;;;7.63;4.93;;;15.40;99.90;;;;;;4974415;28;20308;-88
2022/09/15 07:31:18;;;;;;;6.55;4.45;;;15.40;99.90;;;;;;4975748;28;20197;-87
2022/09/15 07:33:43;;;;;;;3.92;3.00;;;15.30;99.90;;;;;;4974761;28;20265;-89
2022/09/15 07:36:10;;;;;;;9.70;4.50;;;15.30;99.90;;;;;;4974761;28;20269;-88
2022/09/15 07:38:40;;;;;;;5.38;3.58;;;15.20;99.90;;;;;;4957545;28;20190;-89
2022/09/15 07:41:08;;;;;;;6.07;3.78;;;15.30;99.90;;;;;;4972330;28;20182;-89
2022/09/15 07:43:34;;;;;;;11.27;6.82;;;15.40;99.90;;;;;;4975044;28;20171;-87
2022/09/15 07:46:00;;;;;;;7.53;6.13;;;15.30;99.90;;;;;;4957118;28;20197;-89
2022/09/15 07:48:27;;;;;;;7.45;5.18;;;15.40;99.90;;;;;;4974479;28;20182;-89
2022/09/15 07:50:52;;;;;;;5.40;3.85;;;15.30;99.90;;;;;;4957413;28;20186;-88
2022/09/15 07:53:18;;;;;;;6.55;4.25;;;15.40;99.90;;;;;;4957767;28;20186;-89
2022/09/15 07:55:43;;;;;;;7.72;4.03;;;15.40;99.90;;;;;;4974158;28;20715;-90
2022/09/15 07:58:09;;;;;;;4.25;2.75;;;15.50;99.90;;;;;;4957337;28;20206;-89
2022/09/15 08:00:37;;;;;;;4.70;3.17;;;15.50;99.90;;;;;;4974425;28;20551;-89
2022/09/15 08:03:03;;;;;;;6.20;3.10;;;15.50;99.90;;;;;;4972787;28;20191;-88
2022/09/15 08:05:29;;;;;;;4.40;3.40;;;15.60;99.90;;;;;;4954979;28;20682;-89
2022/09/15 08:07:55;;;;;;;5.32;2.80;;;15.60;99.90;;;;;;4952588;28;20633;-89
2022/09/15 08:10:22;;;;;;;4.15;2.88;;;15.70;99.90;;;;;;4967808;28;20189;-89
2022/09/15 08:12:48;;;;;;;5.18;3.22;;;15.70;99.90;;;;;;4972813;28;20675;-88
2022/09/15 08:15:13;;;;;;;5.00;2.83;;;15.70;99.90;;;;;;4973208;28;20179;-89
2022/09/15 08:17:39;;;;;;;5.40;3.53;;;;;;;;;;4972665;28;20281;-89
2022/09/15 08:20:06;;;;;;;5.75;2.80;;;15.80;99.90;;;;;;4955699;28;20221;-89
2022/09/15 08:22:32;;;;;;;5.35;3.60;;;16.20;99.90;;;;;;4973676;28;20186;-89
2022/09/15 08:24:57;;;;;;;3.90;2.92;;;15.60;99.90;;;;;;4972936;28;20868;-90
2022/09/15 08:27:24;;;;;;;4.75;3.45;;;15.80;99.90;;;;;;4973348;28;20242;-90
2022/09/15 08:29:49;;;;;;;5.15;3.78;;;16.30;99.90;;;;;;4955739;28;20638;-89
2022/09/15 08:32:15;;;;;;;4.03;3.17;;;15.80;99.90;;;;;;4955909;28;20312;-90
2022/09/15 08:34:41;;;;;;;4.22;3.55;;;15.90;99.90;;;;;;4939667;28;20200;-89
2022/09/15 08:37:06;;;;;;;3.75;3.05;;;;;;;;;;4955897;28;20174;-90
2022/09/15 08:39:32;;;;;;;4.63;3.65;;;15.90;99.90;;;;;;4956388;28;20190;-89
2022/09/15 08:42:00;;;;;;;5.90;4.43;;;16.00;99.90;;;;;;4955989;28;20179;-88
2022/09/15 08:44:58;;;;;;;3.90;3.45;;;15.80;99.90;;;;;;4974288;28;20217;-89
2022/09/15 08:47:46;;;;;;;4.80;2.90;;;16.40;99.90;;;;;;4974061;28;20229;-89
2022/09/15 08:50:26;;;;;;;3.67;3.35;;;16.00;99.90;;;;;;4972032;28;20185;-90
2022/09/15 08:53:08;;;;;;;6.00;2.83;;;16.00;99.90;;;;;;4970999;28;20216;-88
2022/09/15 08:55:43;;;;;;;3.65;2.85;;;15.70;99.90;;;;;;4957043;28;20809;-88
2022/09/15 08:58:16;;;;;;;3.63;2.47;;;16.10;99.90;;;;;;4973152;28;20244;-89
2022/09/15 09:00:44;;;;;;;2.92;2.30;;;16.20;99.90;;;;;;4972740;28;20179;-89
2022/09/15 09:03:17;;;;;;;3.03;2.42;;;16.30;99.90;;;;;;4969607;28;20187;-89
2022/09/15 09:05:51;;;;;;;3.13;2.60;;;16.30;99.90;;;;;;4972146;28;20508;-89
2022/09/15 09:08:42;;;;;;;3.08;2.55;;;16.40;99.90;;;;;;4971514;28;20173;-87
2022/09/15 09:11:29;;;;;;;3.05;2.33;;;16.40;99.90;;;;;;4972620;28;20379;-87
2022/09/15 09:14:03;;;;;;;7.72;2.70;;;16.40;99.90;;;;;;4955785;28;20182;-86
2022/09/15 09:16:43;;;;;;;4.28;2.75;;;16.40;99.90;;;;;;4956226;28;20232;-87
2022/09/15 09:19:44;;;;;;;6.65;3.75;;;16.10;99.90;;;;;;4974594;28;20186;-88
2022/09/15 09:22:16;;;;;;;7.30;2.67;;;16.50;99.90;;;;;;4964580;28;20194;-89
2022/09/15 09:24:52;;;;;;;2.85;2.10;;;16.50;99.90;;;;;;4974155;28;20181;-87
2022/09/15 09:27:25;;;;;;;4.75;3.45;;;16.60;99.90;;;;;;4976356;28;20245;-87
2022/09/15 09:30:01;;;;;;;4.57;3.25;;;16.60;99.90;;;;;;4976549;28;20604;-89
2022/09/15 09:32:44;;;;;;;5.00;2.83;;;16.80;99.90;;;;;;4977414;28;20670;-88
2022/09/15 09:35:30;;;;;;;7.95;4.72;;;16.80;99.90;;;;;;4978391;28;20655;-89
2022/09/15 09:37:58;;;;;;;5.75;3.38;;;16.90;99.90;;;;;;4975082;28;20269;-89
2022/09/15 09:40:24;;;;;;;4.03;3.30;;;16.90;99.90;;;;;;4960023;28;20270;-89
2022/09/15 09:42:50;;;;;;;4.95;3.58;;;17.00;99.90;;;;;;4975785;28;20195;-88
2022/09/15 09:45:18;;;;;;;6.35;4.43;;;17.00;99.90;;;;;;4975321;28;20181;-89
2022/09/15 09:47:45;;;;;;;6.03;4.18;;;17.20;99.90;;;;;;4943450;28;20186;-86
2022/09/15 09:50:41;;;;;;;7.63;3.95;;;17.30;99.90;;;;;;4959556;28;20273;-88
2022/09/15 09:53:32;;;;;;;5.32;3.40;;;17.50;99.90;;;;;;4976602;28;20249;-88
2022/09/15 09:56:24;;;;;;;10.30;4.38;;;17.80;99.90;;;;;;4944291;28;20273;-89
2022/09/15 09:58:50;;;;;;;7.70;4.28;;;18.00;99.90;;;;;;4954544;28;20209;-87
2022/09/15 10:01:19;;;;;;;6.75;4.10;;;18.00;99.90;;;;;;4972339;28;20273;-87
2022/09/15 10:03:45;;;;;;;9.10;4.93;;;17.90;99.90;;;;;;4964916;28;20182;-87
2022/09/15 10:06:28;;;;;;;11.77;4.47;;;17.90;99.90;;;;;;4962956;28;20187;-87
2022/09/15 10:08:55;;;;;;;7.97;3.95;;;17.80;99.90;;;;;;4964502;28;20221;-87
2022/09/15 10:11:21;;;;;;;5.85;3.55;;;17.80;99.90;;;;;;4981970;28;20210;-88
2022/09/15 10:13:53;;;;;;;9.93;5.20;;;17.70;99.90;;;;;;4975206;28;20197;-89
2022/09/15 10:16:20;;;;;;;10.57;5.45;;;17.70;99.90;;;;;;4975740;28;20537;-88
2022/09/15 10:18:48;;;;;;;9.93;5.45;;;17.70;99.90;;;;;;4956122;28;20218;-87
2022/09/15 10:21:14;;;;;;;7.05;4.65;;;17.80;99.90;;;;;;4972171;28;20191;-89
2022/09/15 10:23:42;;;;;;;7.30;4.65;;;17.70;99.90;;;;;;4975818;28;20191;-88
2022/09/15 10:26:32;;;;;;;5.70;3.80;;;17.80;99.90;;;;;;4976280;28;20183;-87
2022/09/15 10:29:15;;;;;;;5.45;3.60;;;17.80;99.90;;;;;;4958243;28;20297;-89
2022/09/15 10:31:43;;;;;;;5.15;3.83;;;17.80;99.90;;;;;;4975345;28;20209;-89
2022/09/15 10:34:32;;;;;;;8.27;5.03;;;17.90;99.90;;;;;;4976022;28;20187;-87
2022/09/15 10:37:17;;;;;;;6.68;4.30;;;17.80;99.90;;;;;;4964328;28;20195;-90
2022/09/15 10:39:54;;;;;;;7.40;4.75;;;17.80;99.90;;;;;;4958446;28;20174;-87
2022/09/15 10:42:42;;;;;;;8.13;4.13;;;17.80;99.90;;;;;;4975860;28;20686;-88
2022/09/15 10:45:16;;;;;;;9.98;5.70;;;17.80;99.90;;;;;;4964777;28;20650;-87
2022/09/15 10:48:07;;;;;;;10.68;6.03;;;17.70;99.90;;;;;;4963552;28;20265;-86
2022/09/15 10:51:02;;;;;;;10.80;6.78;;;17.70;99.90;;;;;;4942552;28;20195;-87
2022/09/15 10:53:35;;;;;;;14.10;7.78;;;17.70;99.90;;;;;;4976642;28;20205;-88
2022/09/15 10:56:18;;;;;;;15.23;7.60;;;17.70;99.90;;;;;;4967319;28;20252;-90
2022/09/15 10:58:57;;;;;;;15.60;7.07;;;18.00;99.90;;;;;;4956292;28;20186;-87
2022/09/15 11:01:29;;;;;;;9.27;5.07;;;17.80;99.90;;;;;;4964595;28;20218;-88
2022/09/15 11:04:11;;;;;;;7.93;5.18;;;17.80;99.90;;;;;;4972042;28;20183;-88
2022/09/15 11:07:06;;;;;;;9.82;5.88;;;17.60;99.90;;;;;;4941950;29;20203;-88
2022/09/15 11:09:44;;;;;;;7.95;4.18;;;18.10;99.90;;;;;;4956031;28;20183;-88
2022/09/15 11:12:27;;;;;;;15.77;5.47;;;18.10;99.90;;;;;;4956079;28;20671;-87
2022/09/15 11:15:19;;;;;;;7.50;3.90;;;18.40;99.90;;;;;;4957272;28;20656;-89
2022/09/15 11:17:59;;;;;;;3.88;2.55;;;18.60;99.90;;;;;;4939697;29;20267;-88
2022/09/15 11:20:28;;;;;;;8.77;4.10;;;18.80;99.90;;;;;;4939020;29;20601;-89
2022/09/15 11:22:54;;;;;;;8.32;3.92;;;;;;;;;;4956559;29;20257;-89
2022/09/15 11:25:24;;;;;;;4.65;3.10;;;18.90;99.90;;;;;;4955852;29;20624;-89
2022/09/15 11:27:56;;;;;;;13.10;4.88;;;18.90;99.90;;;;;;4956099;29;20227;-88
2022/09/15 11:30:31;;;;;;;5.95;3.65;;;18.90;99.90;;;;;;4938500;29;20179;-89
2022/09/15 11:33:00;;;;;;;4.97;3.08;;;18.80;99.90;;;;;;4956420;29;20722;-89
2022/09/15 11:35:49;;;;;;;3.63;2.35;;;18.70;99.90;;;;;;4938773;29;20325;-88
2022/09/15 11:38:46;;;;;;;3.92;2.58;;;18.60;99.90;;;;;;4955921;29;20283;-88
2022/09/15 11:41:25;;;;;;;3.45;2.65;;;18.60;99.90;;;;;;4955922;28;20159;-88
2022/09/15 11:44:03;;;;;;;3.80;2.20;;;18.80;99.90;;;;;;4955962;29;20183;-91
2022/09/15 11:47:06;;;;;;;2.75;2.05;;;18.90;99.90;;;;;;4938679;29;20711;-88
2022/09/15 11:49:42;;;;;;;4.45;3.20;;;18.90;99.90;;;;;;4939055;29;20612;-87
2022/09/15 11:52:22;;;;;;;4.05;2.97;;;18.90;99.90;;;;;;4955683;28;20212;-89
2022/09/15 11:54:56;;;;;;;4.60;3.03;;;18.90;99.90;;;;;;4961221;28;20178;-88
2022/09/15 11:57:30;;;;;;;5.38;2.78;;;18.80;99.90;;;;;;4974777;28;20187;-88
2022/09/15 12:00:09;;;;;;;4.53;3.30;;;18.80;99.90;;;;;;4974765;28;20162;-87
2022/09/15 12:02:53;;;;;;;7.30;2.70;;;18.70;99.90;;;;;;4968597;28;20549;-89
2022/09/15 12:05:32;;;;;;;5.10;2.58;;;18.60;99.90;;;;;;4947434;28;20606;-87
2022/09/15 12:08:14;;;;;;;3.63;1.98;;;18.60;99.90;;;;;;4955777;29;20203;-86
2022/09/15 12:10:44;;;;;;;3.70;2.33;;;18.50;99.90;;;;;;4961522;28;20167;-87
2022/09/15 12:13:19;;;;;;;2.75;1.75;;;18.50;99.90;;;;;;4940976;28;20620;-86
2022/09/15 12:15:46;;;;;;;3.45;2.40;;;18.60;99.90;;;;;;4938102;29;20615;-85
2022/09/15 12:18:27;;;;;;;2.90;2.58;;;18.60;99.90;;;;;;4969206;28;20186;-87
2022/09/15 12:21:01;;;;;;;4.05;2.38;;;18.60;99.90;;;;;;4968186;28;20171;-88
2022/09/15 12:23:44;;;;;;;3.08;2.03;;;18.50;99.90;;;;;;4948881;28;20190;-88
2022/09/15 12:26:16;;;;;;;3.65;1.92;;;18.50;99.90;;;;;;4963923;28;20178;-87
2022/09/15 12:28:45;;;;;;;3.22;2.22;;;18.40;99.90;;;;;;4956744;28;20230;-88
2022/09/15 12:31:39;;;;;;;3.78;2.65;;;18.30;99.90;;;;;;4969067;28;20322;-89
2022/09/15 12:34:35;;;;;;;3.90;2.85;;;17.20;99.90;;;;;;4967935;28;20238;-88
2022/09/15 12:37:12;;;;;;;5.88;2.78;;;18.30;99.90;;;;;;4969282;28;20179;-89
2022/09/15 12:39:47;;;;;;;3.97;2.85;;;18.30;99.90;;;;;;4952401;28;20186;-87
2022/09/15 12:42:16;;;;;;;4.25;2.88;;;18.30;99.90;;;;;;4923132;29;20197;-86
2022/09/15 12:44:48;;;;;;;3.90;2.53;;;18.30;99.90;;;;;;4955403;29;20270;-86
2022/09/15 12:47:21;;;;;;;3.17;2.33;;;17.80;99.90;;;;;;4954542;29;20195;-84
2022/09/15 12:49:50;;;;;;;2.83;1.95;;;18.20;99.90;;;;;;4937690;29;20598;-86
2022/09/15 12:52:18;;;;;;;2.22;1.92;;;18.00;99.90;;;;;;4937683;29;20211;-86
2022/09/15 12:54:50;;;;;;;4.35;2.70;;;18.20;99.90;;;;;;4960517;28;20632;-86
2022/09/15 12:57:36;;;;;;;4.22;3.40;;;18.40;99.90;;;;;;4965963;28;20275;-87
2022/09/15 13:00:26;;;;;;;5.45;3.03;;;18.60;99.90;;;;;;4956122;28;20282;-87
2022/09/15 13:02:52;;;;;;;5.43;2.67;;;18.70;99.90;;;;;;4968066;28;20171;-88
2022/09/15 13:05:40;;;;;;;3.67;2.60;;;18.80;99.90;;;;;;4956205;28;20197;-85
2022/09/15 13:08:35;;;;;;;3.17;2.25;;;18.80;99.90;;;;;;4953495;29;20187;-86
2022/09/15 13:11:07;;;;;;;3.95;3.05;;;18.90;99.90;;;;;;4933136;29;20278;-87
2022/09/15 13:13:50;;;;;;;4.72;3.28;;;18.80;99.90;;;;;;4936991;29;20198;-85
2022/09/15 13:16:31;;;;;;;5.45;3.00;;;18.90;99.90;;;;;;4953266;29;20175;-86
2022/09/15 13:19:11;;;;;;;3.28;2.15;;;19.00;99.90;;;;;;4954125;28;20187;-86